sensor_id;sensor_type;location;lat;lon;timestamp;temperature;humidity
10245;DHT22;5167;52.164;10.530;2023-07-13T00:01:35;21.40;5.00
10245;DHT22;5167;52.164;10.530;2023-07-13T00:04:01;21.20;5.00
10245;DHT22;5167;52.164;10.530;2023-07-13T00:06:26;21.10;5.00
10245;DHT22;5167;52.164;10.530;2023-07-13T00:08:55;21.10;5.00
10245;DHT22;5167;52.164;10.530;2023-07-13T00:11:21;21.10;5.00
10245;DHT22;5167;52.164;10.530;2023-07-13T00:13:46;21.10;5.00
10245;DHT22;5167;52.164;10.530;2023-07-13T00:16:12;21.10;5.00
10245;DHT22;5167;52.164;10.530;2023-07-13T00:18:39;21.00;5.00
10245;DHT22;5167;52.164;10.530;2023-07-13T00:21:05;21.00;5.00
10245;DHT22;5167;52.164;10.530;2023-07-13T00:23:35;21.00;5.00
10245;DHT22;5167;52.164;10.530;2023-07-13T00:26:03;21.10;5.00
10245;DHT22;5167;52.164;10.530;2023-07-13T00:28:28;20.90;5.00
10245;DHT22;5167;52.164;10.530;2023-07-13T00:30:54;20.80;5.00
10245;DHT22;5167;52.164;10.530;2023-07-13T00:33:20;20.80;5.00
10245;DHT22;5167;52.164;10.530;2023-07-13T00:35:45;20.90;5.00
10245;DHT22;5167;52.164;10.530;2023-07-13T00:38:11;20.70;5.00
10245;DHT22;5167;52.164;10.530;2023-07-13T00:40:36;20.70;5.00
10245;DHT22;5167;52.164;10.530;2023-07-13T00:43:04;20.70;5.00
10245;DHT22;5167;52.164;10.530;2023-07-13T00:47:57;20.80;5.00
10245;DHT22;5167;52.164;10.530;2023-07-13T00:50:23;20.40;5.00
10245;DHT22;5167;52.164;10.530;2023-07-13T00:52:53;20.70;5.00
10245;DHT22;5167;52.164;10.530;2023-07-13T00:55:20;20.80;5.00
10245;DHT22;5167;52.164;10.530;2023-07-13T00:57:46;20.50;5.00
10245;DHT22;5167;52.164;10.530;2023-07-13T01:00:12;20.50;5.00
10245;DHT22;5167;52.164;10.530;2023-07-13T01:02:40;20.40;5.00
10245;DHT22;5167;52.164;10.530;2023-07-13T01:07:36;20.50;5.00
10245;DHT22;5167;52.164;10.530;2023-07-13T01:10:03;20.50;5.00
10245;DHT22;5167;52.164;10.530;2023-07-13T01:12:29;20.50;5.00
10245;DHT22;5167;52.164;10.530;2023-07-13T01:15:00;20.70;5.00
10245;DHT22;5167;52.164;10.530;2023-07-13T01:17:26;20.40;5.00
10245;DHT22;5167;52.164;10.530;2023-07-13T01:19:53;20.50;5.00
10245;DHT22;5167;52.164;10.530;2023-07-13T01:22:19;20.20;5.00
10245;DHT22;5167;52.164;10.530;2023-07-13T01:24:48;20.40;5.00
10245;DHT22;5167;52.164;10.530;2023-07-13T01:27:15;20.50;5.00
10245;DHT22;5167;52.164;10.530;2023-07-13T01:29:43;20.50;5.00
10245;DHT22;5167;52.164;10.530;2023-07-13T01:32:11;20.50;5.00
10245;DHT22;5167;52.164;10.530;2023-07-13T01:34:37;20.60;5.00
10245;DHT22;5167;52.164;10.530;2023-07-13T01:37:04;20.50;5.00
10245;DHT22;5167;52.164;10.530;2023-07-13T01:39:30;20.50;5.00
10245;DHT22;5167;52.164;10.530;2023-07-13T01:41:57;20.50;5.00
10245;DHT22;5167;52.164;10.530;2023-07-13T01:44:22;20.50;5.00
10245;DHT22;5167;52.164;10.530;2023-07-13T01:46:48;20.50;5.00
10245;DHT22;5167;52.164;10.530;2023-07-13T01:49:13;20.50;5.00
10245;DHT22;5167;52.164;10.530;2023-07-13T01:51:39;20.40;5.00
10245;DHT22;5167;52.164;10.530;2023-07-13T01:54:04;20.40;5.00
10245;DHT22;5167;52.164;10.530;2023-07-13T01:56:30;20.40;5.00
10245;DHT22;5167;52.164;10.530;2023-07-13T01:58:55;20.30;5.00
10245;DHT22;5167;52.164;10.530;2023-07-13T02:01:21;20.30;5.00
10245;DHT22;5167;52.164;10.530;2023-07-13T02:03:46;20.30;5.00
10245;DHT22;5167;52.164;10.530;2023-07-13T02:06:12;20.20;5.00
10245;DHT22;5167;52.164;10.530;2023-07-13T02:08:37;20.20;5.00
10245;DHT22;5167;52.164;10.530;2023-07-13T02:11:03;20.20;5.00
10245;DHT22;5167;52.164;10.530;2023-07-13T02:13:29;19.90;5.00
10245;DHT22;5167;52.164;10.530;2023-07-13T02:15:54;20.00;5.00
10245;DHT22;5167;52.164;10.530;2023-07-13T02:18:20;19.90;5.00
10245;DHT22;5167;52.164;10.530;2023-07-13T02:20:45;20.10;5.00
10245;DHT22;5167;52.164;10.530;2023-07-13T02:23:11;20.10;5.00
10245;DHT22;5167;52.164;10.530;2023-07-13T02:25:37;20.10;5.00
10245;DHT22;5167;52.164;10.530;2023-07-13T02:28:03;20.10;5.00
10245;DHT22;5167;52.164;10.530;2023-07-13T02:30:29;20.10;5.00
10245;DHT22;5167;52.164;10.530;2023-07-13T02:32:56;20.00;5.00
10245;DHT22;5167;52.164;10.530;2023-07-13T02:35:21;20.10;5.00
10245;DHT22;5167;52.164;10.530;2023-07-13T02:37:47;19.70;5.00
10245;DHT22;5167;52.164;10.530;2023-07-13T02:40:13;20.00;5.00
10245;DHT22;5167;52.164;10.530;2023-07-13T02:42:39;20.00;5.00
10245;DHT22;5167;52.164;10.530;2023-07-13T02:45:05;20.00;5.00
10245;DHT22;5167;52.164;10.530;2023-07-13T02:47:32;20.00;5.00
10245;DHT22;5167;52.164;10.530;2023-07-13T02:49:58;20.00;5.00
10245;DHT22;5167;52.164;10.530;2023-07-13T02:52:24;20.20;5.00
10245;DHT22;5167;52.164;10.530;2023-07-13T02:54:49;20.00;5.00
10245;DHT22;5167;52.164;10.530;2023-07-13T02:57:15;20.00;5.00
10245;DHT22;5167;52.164;10.530;2023-07-13T02:59:40;20.00;5.00
10245;DHT22;5167;52.164;10.530;2023-07-13T03:02:06;20.10;5.00
10245;DHT22;5167;52.164;10.530;2023-07-13T03:04:31;20.20;5.00
10245;DHT22;5167;52.164;10.530;2023-07-13T03:06:57;20.10;5.00
10245;DHT22;5167;52.164;10.530;2023-07-13T03:09:24;20.10;5.00
10245;DHT22;5167;52.164;10.530;2023-07-13T03:11:55;20.10;5.00
10245;DHT22;5167;52.164;10.530;2023-07-13T03:14:22;20.10;5.00
10245;DHT22;5167;52.164;10.530;2023-07-13T03:16:48;20.00;5.00
10245;DHT22;5167;52.164;10.530;2023-07-13T03:19:13;20.10;5.00
10245;DHT22;5167;52.164;10.530;2023-07-13T03:21:39;20.10;5.00
10245;DHT22;5167;52.164;10.530;2023-07-13T03:24:05;20.00;5.00
10245;DHT22;5167;52.164;10.530;2023-07-13T03:26:30;20.10;5.00
10245;DHT22;5167;52.164;10.530;2023-07-13T03:28:57;20.10;5.00
10245;DHT22;5167;52.164;10.530;2023-07-13T03:31:25;20.10;5.00
10245;DHT22;5167;52.164;10.530;2023-07-13T03:33:51;20.00;5.00
10245;DHT22;5167;52.164;10.530;2023-07-13T03:36:20;20.00;5.00
10245;DHT22;5167;52.164;10.530;2023-07-13T03:38:47;20.00;5.00
10245;DHT22;5167;52.164;10.530;2023-07-13T03:41:13;20.00;5.00
10245;DHT22;5167;52.164;10.530;2023-07-13T03:43:39;20.00;5.00
10245;DHT22;5167;52.164;10.530;2023-07-13T03:46:04;20.10;5.00
10245;DHT22;5167;52.164;10.530;2023-07-13T03:48:30;20.00;5.00
10245;DHT22;5167;52.164;10.530;2023-07-13T03:50:55;20.00;5.00
10245;DHT22;5167;52.164;10.530;2023-07-13T03:53:21;20.10;5.00
10245;DHT22;5167;52.164;10.530;2023-07-13T03:55:46;20.00;5.00
10245;DHT22;5167;52.164;10.530;2023-07-13T04:00:53;20.10;5.00
10245;DHT22;5167;52.164;10.530;2023-07-13T04:03:19;20.10;5.00
10245;DHT22;5167;52.164;10.530;2023-07-13T04:05:45;20.10;5.00
10245;DHT22;5167;52.164;10.530;2023-07-13T04:08:11;20.10;5.00
10245;DHT22;5167;52.164;10.530;2023-07-13T04:10:36;20.10;5.00
10245;DHT22;5167;52.164;10.530;2023-07-13T04:13:02;20.00;5.00
10245;DHT22;5167;52.164;10.530;2023-07-13T04:15:30;20.10;5.00
10245;DHT22;5167;52.164;10.530;2023-07-13T04:17:55;19.90;5.00
10245;DHT22;5167;52.164;10.530;2023-07-13T04:20:21;20.00;5.00
10245;DHT22;5167;52.164;10.530;2023-07-13T04:22:47;20.10;5.00
10245;DHT22;5167;52.164;10.530;2023-07-13T04:25:12;20.10;5.00
10245;DHT22;5167;52.164;10.530;2023-07-13T04:27:38;20.10;5.00
10245;DHT22;5167;52.164;10.530;2023-07-13T04:30:05;20.00;5.00
10245;DHT22;5167;52.164;10.530;2023-07-13T04:32:31;20.10;5.00
10245;DHT22;5167;52.164;10.530;2023-07-13T04:34:57;20.10;5.00
10245;DHT22;5167;52.164;10.530;2023-07-13T04:37:25;20.10;5.00
10245;DHT22;5167;52.164;10.530;2023-07-13T04:39:51;20.20;5.00
10245;DHT22;5167;52.164;10.530;2023-07-13T04:42:17;20.20;5.00
10245;DHT22;5167;52.164;10.530;2023-07-13T04:44:48;20.10;5.00
10245;DHT22;5167;52.164;10.530;2023-07-13T04:47:14;20.20;5.00
10245;DHT22;5167;52.164;10.530;2023-07-13T04:49:40;20.20;5.00
10245;DHT22;5167;52.164;10.530;2023-07-13T04:52:06;20.20;5.00
10245;DHT22;5167;52.164;10.530;2023-07-13T04:54:33;20.30;5.00
10245;DHT22;5167;52.164;10.530;2023-07-13T04:56:59;20.40;5.00
10245;DHT22;5167;52.164;10.530;2023-07-13T04:59:25;20.50;5.00
10245;DHT22;5167;52.164;10.530;2023-07-13T05:01:50;20.50;5.00
10245;DHT22;5167;52.164;10.530;2023-07-13T05:04:16;20.70;5.00
10245;DHT22;5167;52.164;10.530;2023-07-13T05:06:42;20.50;5.00
10245;DHT22;5167;52.164;10.530;2023-07-13T05:09:07;20.50;5.00
10245;DHT22;5167;52.164;10.530;2023-07-13T05:11:33;20.50;5.00
10245;DHT22;5167;52.164;10.530;2023-07-13T05:13:59;20.60;5.00
10245;DHT22;5167;52.164;10.530;2023-07-13T05:16:26;20.50;5.00
10245;DHT22;5167;52.164;10.530;2023-07-13T05:18:52;20.40;5.00
10245;DHT22;5167;52.164;10.530;2023-07-13T05:21:17;20.60;5.00
10245;DHT22;5167;52.164;10.530;2023-07-13T05:23:43;20.50;5.00
10245;DHT22;5167;52.164;10.530;2023-07-13T05:26:08;20.60;5.00
10245;DHT22;5167;52.164;10.530;2023-07-13T05:28:34;20.60;5.00
10245;DHT22;5167;52.164;10.530;2023-07-13T05:30:59;20.60;5.00
10245;DHT22;5167;52.164;10.530;2023-07-13T05:33:25;20.50;5.00
10245;DHT22;5167;52.164;10.530;2023-07-13T05:35:51;20.60;5.00
10245;DHT22;5167;52.164;10.530;2023-07-13T05:38:17;20.70;5.00
10245;DHT22;5167;52.164;10.530;2023-07-13T05:40:43;20.60;5.00
10245;DHT22;5167;52.164;10.530;2023-07-13T05:43:09;20.70;5.00
10245;DHT22;5167;52.164;10.530;2023-07-13T05:45:35;20.70;5.00
10245;DHT22;5167;52.164;10.530;2023-07-13T05:48:00;20.80;5.00
10245;DHT22;5167;52.164;10.530;2023-07-13T05:50:26;20.90;5.00
10245;DHT22;5167;52.164;10.530;2023-07-13T05:52:52;20.60;5.00
10245;DHT22;5167;52.164;10.530;2023-07-13T05:55:18;21.00;5.00
10245;DHT22;5167;52.164;10.530;2023-07-13T05:57:44;21.00;5.00
10245;DHT22;5167;52.164;10.530;2023-07-13T06:00:10;20.90;5.00
10245;DHT22;5167;52.164;10.530;2023-07-13T06:02:35;21.10;5.00
10245;DHT22;5167;52.164;10.530;2023-07-13T06:05:01;21.20;5.00
10245;DHT22;5167;52.164;10.530;2023-07-13T06:07:26;21.30;5.00
10245;DHT22;5167;52.164;10.530;2023-07-13T06:09:52;21.40;5.00
10245;DHT22;5167;52.164;10.530;2023-07-13T06:12:17;21.40;5.00
10245;DHT22;5167;52.164;10.530;2023-07-13T06:14:43;21.70;5.00
10245;DHT22;5167;52.164;10.530;2023-07-13T06:17:08;21.90;5.00
10245;DHT22;5167;52.164;10.530;2023-07-13T06:19:34;21.60;5.00
10245;DHT22;5167;52.164;10.530;2023-07-13T06:22:00;22.00;5.00
10245;DHT22;5167;52.164;10.530;2023-07-13T06:24:26;22.10;5.00
10245;DHT22;5167;52.164;10.530;2023-07-13T06:26:51;22.20;5.00
10245;DHT22;5167;52.164;10.530;2023-07-13T06:29:17;22.30;5.00
10245;DHT22;5167;52.164;10.530;2023-07-13T06:31:42;22.40;5.00
10245;DHT22;5167;52.164;10.530;2023-07-13T06:34:08;22.40;5.00
10245;DHT22;5167;52.164;10.530;2023-07-13T06:36:34;22.40;5.00
10245;DHT22;5167;52.164;10.530;2023-07-13T06:38:59;22.50;5.00
10245;DHT22;5167;52.164;10.530;2023-07-13T06:41:25;22.30;5.00
10245;DHT22;5167;52.164;10.530;2023-07-13T06:43:53;22.40;5.00
10245;DHT22;5167;52.164;10.530;2023-07-13T06:46:21;22.30;5.00
10245;DHT22;5167;52.164;10.530;2023-07-13T06:48:46;22.40;5.00
10245;DHT22;5167;52.164;10.530;2023-07-13T06:51:12;22.50;5.00
10245;DHT22;5167;52.164;10.530;2023-07-13T06:53:37;22.50;5.00
10245;DHT22;5167;52.164;10.530;2023-07-13T06:56:03;22.60;5.00
10245;DHT22;5167;52.164;10.530;2023-07-13T06:58:29;22.70;5.00
10245;DHT22;5167;52.164;10.530;2023-07-13T07:00:54;22.90;5.00
10245;DHT22;5167;52.164;10.530;2023-07-13T07:03:20;22.90;5.00
10245;DHT22;5167;52.164;10.530;2023-07-13T07:05:45;22.70;5.00
10245;DHT22;5167;52.164;10.530;2023-07-13T07:08:11;23.00;5.00
10245;DHT22;5167;52.164;10.530;2023-07-13T07:10:36;23.00;5.00
10245;DHT22;5167;52.164;10.530;2023-07-13T07:13:02;23.00;5.00
10245;DHT22;5167;52.164;10.530;2023-07-13T07:15:28;23.00;5.00
10245;DHT22;5167;52.164;10.530;2023-07-13T07:17:54;23.10;5.00
10245;DHT22;5167;52.164;10.530;2023-07-13T07:20:20;23.10;5.00
10245;DHT22;5167;52.164;10.530;2023-07-13T07:22:46;23.30;5.00
10245;DHT22;5167;52.164;10.530;2023-07-13T07:25:12;23.40;5.00
10245;DHT22;5167;52.164;10.530;2023-07-13T07:27:37;23.60;5.00
10245;DHT22;5167;52.164;10.530;2023-07-13T07:30:03;23.80;5.00
10245;DHT22;5167;52.164;10.530;2023-07-13T07:32:30;23.90;5.00
10245;DHT22;5167;52.164;10.530;2023-07-13T07:34:56;24.20;5.00
10245;DHT22;5167;52.164;10.530;2023-07-13T07:37:22;24.20;5.00
10245;DHT22;5167;52.164;10.530;2023-07-13T07:39:47;24.40;5.00
10245;DHT22;5167;52.164;10.530;2023-07-13T07:42:13;24.50;5.00
10245;DHT22;5167;52.164;10.530;2023-07-13T07:44:40;24.60;5.00
10245;DHT22;5167;52.164;10.530;2023-07-13T07:47:06;24.70;5.00
10245;DHT22;5167;52.164;10.530;2023-07-13T07:49:32;24.70;5.00
10245;DHT22;5167;52.164;10.530;2023-07-13T07:51:57;24.80;5.00
10245;DHT22;5167;52.164;10.530;2023-07-13T07:54:23;24.70;5.00
10245;DHT22;5167;52.164;10.530;2023-07-13T07:56:48;24.60;5.00
10245;DHT22;5167;52.164;10.530;2023-07-13T07:59:14;24.60;5.00
10245;DHT22;5167;52.164;10.530;2023-07-13T08:01:39;24.50;5.00
10245;DHT22;5167;52.164;10.530;2023-07-13T08:04:05;24.50;5.00
10245;DHT22;5167;52.164;10.530;2023-07-13T08:06:32;24.40;5.00
10245;DHT22;5167;52.164;10.530;2023-07-13T08:08:59;24.40;5.00
10245;DHT22;5167;52.164;10.530;2023-07-13T08:11:25;24.30;5.00
10245;DHT22;5167;52.164;10.530;2023-07-13T08:13:50;24.30;5.00
10245;DHT22;5167;52.164;10.530;2023-07-13T08:16:16;24.10;5.00
10245;DHT22;5167;52.164;10.530;2023-07-13T08:18:41;24.20;5.00
10245;DHT22;5167;52.164;10.530;2023-07-13T08:21:08;24.30;5.00
10245;DHT22;5167;52.164;10.530;2023-07-13T08:23:34;24.30;5.00
10245;DHT22;5167;52.164;10.530;2023-07-13T08:26:00;24.40;5.00
10245;DHT22;5167;52.164;10.530;2023-07-13T08:28:30;24.20;5.00
10245;DHT22;5167;52.164;10.530;2023-07-13T08:31:00;24.40;5.00
10245;DHT22;5167;52.164;10.530;2023-07-13T08:33:26;24.60;5.00
10245;DHT22;5167;52.164;10.530;2023-07-13T08:35:51;24.60;5.00
10245;DHT22;5167;52.164;10.530;2023-07-13T08:38:18;24.70;5.00
10245;DHT22;5167;52.164;10.530;2023-07-13T08:40:45;24.70;5.00
10245;DHT22;5167;52.164;10.530;2023-07-13T08:43:16;24.80;5.00
10245;DHT22;5167;52.164;10.530;2023-07-13T08:45:47;24.80;5.00
10245;DHT22;5167;52.164;10.530;2023-07-13T08:48:30;24.80;5.00
10245;DHT22;5167;52.164;10.530;2023-07-13T08:51:07;25.00;5.00
10245;DHT22;5167;52.164;10.530;2023-07-13T08:53:42;25.10;5.00
10245;DHT22;5167;52.164;10.530;2023-07-13T08:56:35;25.20;5.00
10245;DHT22;5167;52.164;10.530;2023-07-13T08:59:14;25.30;5.00
10245;DHT22;5167;52.164;10.530;2023-07-13T09:01:52;25.50;5.00
10245;DHT22;5167;52.164;10.530;2023-07-13T09:04:28;25.60;5.00
10245;DHT22;5167;52.164;10.530;2023-07-13T09:06:58;25.60;5.00
10245;DHT22;5167;52.164;10.530;2023-07-13T09:12:31;25.80;5.00
10245;DHT22;5167;52.164;10.530;2023-07-13T09:14:59;25.80;5.00
10245;DHT22;5167;52.164;10.530;2023-07-13T09:17:35;25.90;5.00
10245;DHT22;5167;52.164;10.530;2023-07-13T09:20:34;25.90;5.00
10245;DHT22;5167;52.164;10.530;2023-07-13T09:23:05;25.80;5.00
10245;DHT22;5167;52.164;10.530;2023-07-13T09:25:35;25.80;5.00
10245;DHT22;5167;52.164;10.530;2023-07-13T09:28:12;25.80;5.00
10245;DHT22;5167;52.164;10.530;2023-07-13T09:30:56;25.90;5.00
10245;DHT22;5167;52.164;10.530;2023-07-13T09:33:23;26.00;5.00
10245;DHT22;5167;52.164;10.530;2023-07-13T09:35:49;26.00;5.00
10245;DHT22;5167;52.164;10.530;2023-07-13T09:38:17;26.00;5.00
10245;DHT22;5167;52.164;10.530;2023-07-13T09:40:56;26.00;5.00
10245;DHT22;5167;52.164;10.530;2023-07-13T09:43:22;26.00;5.00
10245;DHT22;5167;52.164;10.530;2023-07-13T09:45:47;26.20;5.00
10245;DHT22;5167;52.164;10.530;2023-07-13T09:48:14;26.30;5.00
10245;DHT22;5167;52.164;10.530;2023-07-13T09:50:42;26.40;5.00
10245;DHT22;5167;52.164;10.530;2023-07-13T09:53:15;26.60;5.00
10245;DHT22;5167;52.164;10.530;2023-07-13T09:55:43;26.70;5.00
10245;DHT22;5167;52.164;10.530;2023-07-13T09:58:13;26.70;5.00
10245;DHT22;5167;52.164;10.530;2023-07-13T10:00:39;26.60;5.00
10245;DHT22;5167;52.164;10.530;2023-07-13T10:03:21;26.50;5.00
10245;DHT22;5167;52.164;10.530;2023-07-13T10:05:51;26.40;5.00
10245;DHT22;5167;52.164;10.530;2023-07-13T10:08:20;26.30;5.00
10245;DHT22;5167;52.164;10.530;2023-07-13T10:10:46;26.20;5.00
10245;DHT22;5167;52.164;10.530;2023-07-13T10:13:37;26.10;5.00
10245;DHT22;5167;52.164;10.530;2023-07-13T10:16:06;26.00;5.00
10245;DHT22;5167;52.164;10.530;2023-07-13T10:18:56;26.00;5.00
10245;DHT22;5167;52.164;10.530;2023-07-13T10:21:32;25.90;5.00
10245;DHT22;5167;52.164;10.530;2023-07-13T10:24:22;25.90;5.00
10245;DHT22;5167;52.164;10.530;2023-07-13T10:27:13;25.90;5.00
10245;DHT22;5167;52.164;10.530;2023-07-13T10:29:46;26.00;5.00
10245;DHT22;5167;52.164;10.530;2023-07-13T10:32:13;25.90;5.00
10245;DHT22;5167;52.164;10.530;2023-07-13T10:34:43;25.80;5.00
10245;DHT22;5167;52.164;10.530;2023-07-13T10:37:20;25.80;5.00
10245;DHT22;5167;52.164;10.530;2023-07-13T10:39:48;25.80;5.00
10245;DHT22;5167;52.164;10.530;2023-07-13T10:42:29;25.90;5.00
10245;DHT22;5167;52.164;10.530;2023-07-13T10:44:56;26.00;5.00
10245;DHT22;5167;52.164;10.530;2023-07-13T10:47:22;26.10;5.00
10245;DHT22;5167;52.164;10.530;2023-07-13T10:49:55;26.00;5.00
10245;DHT22;5167;52.164;10.530;2023-07-13T10:52:48;26.30;5.00
10245;DHT22;5167;52.164;10.530;2023-07-13T10:55:36;26.40;5.00
10245;DHT22;5167;52.164;10.530;2023-07-13T10:58:03;26.60;5.00
10245;DHT22;5167;52.164;10.530;2023-07-13T11:00:47;26.60;5.00
10245;DHT22;5167;52.164;10.530;2023-07-13T11:03:17;26.70;5.00
10245;DHT22;5167;52.164;10.530;2023-07-13T11:05:44;26.70;5.00
10245;DHT22;5167;52.164;10.530;2023-07-13T11:08:32;26.80;5.00
10245;DHT22;5167;52.164;10.530;2023-07-13T11:10:58;26.80;5.00
10245;DHT22;5167;52.164;10.530;2023-07-13T11:16:34;27.00;5.00
10245;DHT22;5167;52.164;10.530;2023-07-13T11:21:31;27.10;5.00
10245;DHT22;5167;52.164;10.530;2023-07-13T11:26:51;27.20;5.00
10245;DHT22;5167;52.164;10.530;2023-07-13T11:31:51;27.20;5.00
10245;DHT22;5167;52.164;10.530;2023-07-13T11:34:19;27.30;5.00
10245;DHT22;5167;52.164;10.530;2023-07-13T11:36:47;27.40;5.00
10245;DHT22;5167;52.164;10.530;2023-07-13T11:41:49;27.40;5.00
10245;DHT22;5167;52.164;10.530;2023-07-13T11:44:19;27.40;5.00
10245;DHT22;5167;52.164;10.530;2023-07-13T11:47:31;27.50;5.00
10245;DHT22;5167;52.164;10.530;2023-07-13T11:49:32;27.60;5.00
10245;DHT22;5167;52.164;10.530;2023-07-13T11:51:58;27.70;5.00
10245;DHT22;5167;52.164;10.530;2023-07-13T11:54:33;27.60;5.00
10245;DHT22;5167;52.164;10.530;2023-07-13T11:57:23;27.60;5.00
10245;DHT22;5167;52.164;10.530;2023-07-13T11:59:51;27.60;5.00
10245;DHT22;5167;52.164;10.530;2023-07-13T12:02:35;27.70;5.00
10245;DHT22;5167;52.164;10.530;2023-07-13T12:05:03;27.70;5.00
10245;DHT22;5167;52.164;10.530;2023-07-13T12:07:32;27.70;5.00
10245;DHT22;5167;52.164;10.530;2023-07-13T12:10:21;27.70;5.00
10245;DHT22;5167;52.164;10.530;2023-07-13T12:12:55;27.70;5.00
10245;DHT22;5167;52.164;10.530;2023-07-13T12:15:22;27.70;5.00
10245;DHT22;5167;52.164;10.530;2023-07-13T12:17:49;27.80;5.00
10245;DHT22;5167;52.164;10.530;2023-07-13T12:20:38;27.90;5.00
10245;DHT22;5167;52.164;10.530;2023-07-13T12:23:20;27.90;5.00
10245;DHT22;5167;52.164;10.530;2023-07-13T12:25:47;27.90;5.00
10245;DHT22;5167;52.164;10.530;2023-07-13T12:28:33;27.90;5.00
10245;DHT22;5167;52.164;10.530;2023-07-13T12:31:01;28.00;5.00
10245;DHT22;5167;52.164;10.530;2023-07-13T12:33:31;28.00;5.00
10245;DHT22;5167;52.164;10.530;2023-07-13T12:36:00;28.00;5.00
10245;DHT22;5167;52.164;10.530;2023-07-13T12:38:27;28.00;5.00
10245;DHT22;5167;52.164;10.530;2023-07-13T12:40:53;28.10;5.00
10245;DHT22;5167;52.164;10.530;2023-07-13T12:43:21;28.10;5.00
10245;DHT22;5167;52.164;10.530;2023-07-13T12:46:20;28.10;5.00
10245;DHT22;5167;52.164;10.530;2023-07-13T12:48:51;28.00;5.00
10245;DHT22;5167;52.164;10.530;2023-07-13T12:51:20;28.00;5.00
10245;DHT22;5167;52.164;10.530;2023-07-13T12:53:51;28.00;5.00
10245;DHT22;5167;52.164;10.530;2023-07-13T12:56:22;27.80;5.00
10245;DHT22;5167;52.164;10.530;2023-07-13T12:58:48;27.80;5.00
10245;DHT22;5167;52.164;10.530;2023-07-13T13:01:21;27.60;5.00
10245;DHT22;5167;52.164;10.530;2023-07-13T13:03:50;27.60;5.00
10245;DHT22;5167;52.164;10.530;2023-07-13T13:06:26;27.60;5.00
10245;DHT22;5167;52.164;10.530;2023-07-13T13:08:57;27.60;5.00
10245;DHT22;5167;52.164;10.530;2023-07-13T13:11:24;27.60;5.00
10245;DHT22;5167;52.164;10.530;2023-07-13T13:13:51;27.50;5.00
10245;DHT22;5167;52.164;10.530;2023-07-13T13:16:30;27.40;5.00
10245;DHT22;5167;52.164;10.530;2023-07-13T13:18:59;27.50;5.00
10245;DHT22;5167;52.164;10.530;2023-07-13T13:21:28;27.30;5.00
10245;DHT22;5167;52.164;10.530;2023-07-13T13:23:53;27.30;5.00
10245;DHT22;5167;52.164;10.530;2023-07-13T13:26:21;27.30;5.00
10245;DHT22;5167;52.164;10.530;2023-07-13T13:28:47;27.30;5.00
10245;DHT22;5167;52.164;10.530;2023-07-13T13:31:16;27.40;5.00
10245;DHT22;5167;52.164;10.530;2023-07-13T13:33:42;27.20;5.00
10245;DHT22;5167;52.164;10.530;2023-07-13T13:36:19;27.20;5.00
10245;DHT22;5167;52.164;10.530;2023-07-13T13:38:45;27.20;5.00
10245;DHT22;5167;52.164;10.530;2023-07-13T13:41:12;27.20;5.00
10245;DHT22;5167;52.164;10.530;2023-07-13T13:43:38;27.20;5.00
10245;DHT22;5167;52.164;10.530;2023-07-13T13:46:13;27.20;5.00
10245;DHT22;5167;52.164;10.530;2023-07-13T13:48:39;27.20;5.00
10245;DHT22;5167;52.164;10.530;2023-07-13T13:51:17;27.20;5.00
10245;DHT22;5167;52.164;10.530;2023-07-13T13:53:44;27.20;5.00
10245;DHT22;5167;52.164;10.530;2023-07-13T13:56:11;27.10;5.00
10245;DHT22;5167;52.164;10.530;2023-07-13T13:58:36;27.10;5.00
10245;DHT22;5167;52.164;10.530;2023-07-13T14:01:02;27.10;5.00
10245;DHT22;5167;52.164;10.530;2023-07-13T14:03:28;27.10;5.00
10245;DHT22;5167;52.164;10.530;2023-07-13T14:05:54;27.00;5.00
10245;DHT22;5167;52.164;10.530;2023-07-13T14:08:21;27.10;5.00
10245;DHT22;5167;52.164;10.530;2023-07-13T14:10:49;27.00;5.00
10245;DHT22;5167;52.164;10.530;2023-07-13T14:13:28;27.00;5.00
10245;DHT22;5167;52.164;10.530;2023-07-13T14:15:54;26.90;5.00
10245;DHT22;5167;52.164;10.530;2023-07-13T14:18:20;26.90;5.00
10245;DHT22;5167;52.164;10.530;2023-07-13T14:20:46;26.90;5.00
10245;DHT22;5167;52.164;10.530;2023-07-13T14:23:14;26.90;5.00
10245;DHT22;5167;52.164;10.530;2023-07-13T14:25:40;27.00;5.00
10245;DHT22;5167;52.164;10.530;2023-07-13T14:28:22;27.00;5.00
10245;DHT22;5167;52.164;10.530;2023-07-13T14:30:49;27.00;5.00
10245;DHT22;5167;52.164;10.530;2023-07-13T14:33:15;27.10;5.00
10245;DHT22;5167;52.164;10.530;2023-07-13T14:35:41;27.10;5.00
10245;DHT22;5167;52.164;10.530;2023-07-13T14:38:13;27.10;5.00
10245;DHT22;5167;52.164;10.530;2023-07-13T14:40:39;27.20;5.00
10245;DHT22;5167;52.164;10.530;2023-07-13T14:43:07;27.10;5.00
10245;DHT22;5167;52.164;10.530;2023-07-13T14:45:34;27.10;5.00
10245;DHT22;5167;52.164;10.530;2023-07-13T14:48:01;27.10;5.00
10245;DHT22;5167;52.164;10.530;2023-07-13T14:50:31;27.10;5.00
10245;DHT22;5167;52.164;10.530;2023-07-13T14:52:57;26.90;5.00
10245;DHT22;5167;52.164;10.530;2023-07-13T14:55:23;26.70;5.00
10245;DHT22;5167;52.164;10.530;2023-07-13T14:57:51;26.60;5.00
10245;DHT22;5167;52.164;10.530;2023-07-13T15:00:19;26.30;5.00
10245;DHT22;5167;52.164;10.530;2023-07-13T15:02:50;26.00;5.00
10245;DHT22;5167;52.164;10.530;2023-07-13T15:05:18;25.70;5.00
10245;DHT22;5167;52.164;10.530;2023-07-13T15:07:44;25.40;5.00
10245;DHT22;5167;52.164;10.530;2023-07-13T15:10:18;25.10;5.00
10245;DHT22;5167;52.164;10.530;2023-07-13T15:12:45;25.00;5.00
10245;DHT22;5167;52.164;10.530;2023-07-13T15:15:11;24.80;5.00
10245;DHT22;5167;52.164;10.530;2023-07-13T15:17:42;24.70;5.00
10245;DHT22;5167;52.164;10.530;2023-07-13T15:20:25;24.50;5.00
10245;DHT22;5167;52.164;10.530;2023-07-13T15:22:52;24.30;5.00
10245;DHT22;5167;52.164;10.530;2023-07-13T15:25:20;24.10;5.00
10245;DHT22;5167;52.164;10.530;2023-07-13T15:27:46;23.90;5.00
10245;DHT22;5167;52.164;10.530;2023-07-13T15:30:13;23.80;5.00
10245;DHT22;5167;52.164;10.530;2023-07-13T15:32:41;23.70;5.00
10245;DHT22;5167;52.164;10.530;2023-07-13T15:35:14;23.60;5.00
10245;DHT22;5167;52.164;10.530;2023-07-13T15:37:40;23.50;5.00
10245;DHT22;5167;52.164;10.530;2023-07-13T15:40:06;23.30;5.00
10245;DHT22;5167;52.164;10.530;2023-07-13T15:42:32;23.40;5.00
10245;DHT22;5167;52.164;10.530;2023-07-13T15:44:57;23.30;5.00
10245;DHT22;5167;52.164;10.530;2023-07-13T15:47:23;23.30;5.00
10245;DHT22;5167;52.164;10.530;2023-07-13T15:49:49;23.20;5.00
10245;DHT22;5167;52.164;10.530;2023-07-13T15:52:18;23.20;5.00
10245;DHT22;5167;52.164;10.530;2023-07-13T15:54:45;23.10;5.00
10245;DHT22;5167;52.164;10.530;2023-07-13T15:57:12;23.00;5.00
10245;DHT22;5167;52.164;10.530;2023-07-13T15:59:38;23.00;5.00
10245;DHT22;5167;52.164;10.530;2023-07-13T16:02:20;23.00;5.00
10245;DHT22;5167;52.164;10.530;2023-07-13T16:04:49;22.90;5.00
10245;DHT22;5167;52.164;10.530;2023-07-13T16:07:15;22.90;5.00
10245;DHT22;5167;52.164;10.530;2023-07-13T16:09:45;22.80;5.00
10245;DHT22;5167;52.164;10.530;2023-07-13T16:12:12;22.90;5.00
10245;DHT22;5167;52.164;10.530;2023-07-13T16:14:39;22.80;5.00
10245;DHT22;5167;52.164;10.530;2023-07-13T16:17:05;22.80;5.00